King of Scandinavia — OVOL2 — position and weather

sailwx.info

Track history (hours):
 
Tides and Currents Weather Stations Pressure Air Temp Water Temp Dewpoint Dewpoint Depression Visibility Wind Speed Wind Dir Waves Ship Positions

King of Scandinavia

Ship's website: http://www.dfds.co.uk/DSW/EN/OnBoard/na/KING.htm

Last reported at 2014-Oct-31 13:32 UTC. Time now 2014-Oct-31 14:17 UTC.
Position N 52°28' E 004°35'.

Length 166 m; beam 27.6 m; draft 6.2 m.

Type: Passenger vessel. MMSI: 220449000.

Date/timePositionNaut miles runAvg speedWind from/ knotsBaromVisibWave heightAir tempDewpointWater temp
2014-Oct-31 13:32N 52°28' E 004°35'0 0.0
2014-Oct-31 12:32N 52°28' E 004°35'0 0.0
2014-Oct-31 11:32N 52°28' E 004°35'0 0.0
2014-Oct-31 10:32N 52°28' E 004°35'0 0.0
2014-Oct-31 09:32N 52°28' E 004°35'0 0.0
2014-Oct-31 08:33N 52°28' E 004°35'1110.7
2014-Oct-31 07:34N 52°34' E 004°21'1716.6
2014-Oct-31 06:33N 52°45' E 003°60'1817.3
2014-Oct-31 05:32N 52°56' E 003°38'1717.2
2014-Oct-31 04:33N 53°07' E 003°16'3617.6
2014-Oct-31 02:31N 53°30' E 002°30'7218.2
2014-Oct-30 22:33N 54°11' E 000°49'1818.4
2014-Oct-30 21:33N 54°21' E 000°23'1818.5
2014-Oct-30 20:34N 54°30' W 000°04'1818.5
2014-Oct-30 19:34N 54°41' W 000°30'1818.3
2014-Oct-30 18:33N 54°51' W 000°57'1817.9
2014-Oct-30 17:33N 55°01' W 001°23'17 1.7
2014-Oct-30 07:33N 54°52' W 000°58'1515.0
2014-Oct-30 06:33N 54°44' W 000°36'1515.1
2014-Oct-30 05:34N 54°36' W 000°14'1716.8
2014-Oct-30 04:34N 54°26' E 000°10'1918.6
2014-Oct-30 03:34N 54°16' E 000°36'14916.5
2014-Oct-29 18:33N 52°47' E 003°57'1615.8
2014-Oct-29 17:34N 52°36' E 004°16'1414.3
2014-Oct-29 16:33N 52°28' E 004°35'0 0.2
2014-Oct-29 15:31N 52°28' E 004°35'0 0.0
2014-Oct-29 14:28N 52°28' E 004°35'0 0.0
2014-Oct-29 13:31N 52°28' E 004°35'0 0.0
2014-Oct-29 12:31N 52°28' E 004°35'0 0.0
2014-Oct-29 11:28N 52°28' E 004°35'0 0.0
2014-Oct-29 10:31N 52°28' E 004°35'0 0.0
2014-Oct-29 09:31N 52°28' E 004°35'0 0.1
2014-Oct-29 08:34N 52°28' E 004°35'1010.2
2014-Oct-29 07:33N 52°33' E 004°21'1313.0
2014-Oct-29 06:33N 52°42' E 004°05'15517.2
2014-Oct-28 21:34N 54°15' E 000°37'1918.9
2014-Oct-28 20:34N 54°25' E 000°10'1919.2
2014-Oct-28 19:34N 54°36' W 000°18'1919.4
2014-Oct-28 18:33N 54°46' W 000°46'1919.1
2014-Oct-28 17:33N 54°57' W 001°14'19 1.8
2014-Oct-28 06:33N 54°47' W 000°45'1312.9
2014-Oct-28 05:33N 54°40' W 000°27'1616.5
2014-Oct-28 04:33N 54°31' W 000°03'1717.2
2014-Oct-28 03:34N 54°21' E 000°22'2118.1
2014-Oct-28 02:24N 54°11' E 000°53'1618.7
2014-Oct-28 01:32N 54°02' E 001°16'2118.5
2014-Oct-28 00:25N 53°50' E 001°44'7016.8
2014-Oct-27 20:14N 53°07' E 003°17'1217.1
2014-Oct-27 19:33N 52°59' E 003°32'1915.2
2014-Oct-27 18:18N 52°48' E 003°58'1515.7
2014-Oct-27 17:19N 52°37' E 004°15'1215.2
2014-Oct-27 16:34N 52°29' E 004°29'4 3.6
2014-Oct-27 15:31N 52°28' E 004°35'0 0.0
2014-Oct-27 14:31N 52°28' E 004°35'0 0.0
2014-Oct-27 13:31N 52°28' E 004°35'0 0.0
2014-Oct-27 12:31N 52°28' E 004°35'0 0.0
2014-Oct-27 11:31N 52°28' E 004°35'0 0.0
2014-Oct-27 10:31N 52°28' E 004°35'0 0.0
2014-Oct-27 09:31N 52°28' E 004°35'0 0.0
2014-Oct-27 08:34N 52°28' E 004°35'1111.0
2014-Oct-27 07:33N 52°34' E 004°20'1716.8
2014-Oct-27 06:33N 52°45' E 003°59'14317.7
2014-Oct-26 22:26N 54°11' E 000°46'1516.6
2014-Oct-26 21:33N 54°19' E 000°26'1717.0
2014-Oct-26 20:33N 54°28' E 000°01'1717.4
2014-Oct-26 19:33N 54°38' W 000°24'2218.0
2014-Oct-26 18:21N 54°50' W 000°55'1518.3
2014-Oct-26 17:33N 54°58' W 001°17'20 2.0
2014-Oct-26 07:32N 54°48' W 000°48'1716.9
2014-Oct-26 06:32N 54°39' W 000°23'1616.4
2014-Oct-26 05:33N 54°30' E 000°00'1616.1
2014-Oct-26 04:33N 54°21' E 000°23'17414.4
2014-Oct-25 16:29N 52°37' E 004°16'1414.7
2014-Oct-25 15:33N 52°28' E 004°33'1 1.3
2014-Oct-25 14:32N 52°28' E 004°35'0 0.0
2014-Oct-25 13:32N 52°28' E 004°35'0 0.0
2014-Oct-25 12:32N 52°28' E 004°35'0 0.0
2014-Oct-25 11:32N 52°28' E 004°35'0 0.0
2014-Oct-25 10:32N 52°28' E 004°35'0 0.0
2014-Oct-25 09:32N 52°28' E 004°35'0 0.0
2014-Oct-25 08:32N 52°28' E 004°35'0 0.0
2014-Oct-25 07:33N 52°28' E 004°35'1211.7
2014-Oct-25 06:33N 52°35' E 004°19'2517.6
2014-Oct-25 05:07N 52°51' E 003°48'1017.8
2014-Oct-25 04:33N 52°57' E 003°35'12417.5
2014-Oct-24 21:28N 54°11' E 000°48'1617.3
2014-Oct-24 20:33N 54°20' E 000°25'1817.5
2014-Oct-24 19:33N 54°29' W 000°00'1817.9
2014-Oct-24 18:33N 54°39' W 000°26'2018.4
2014-Oct-24 17:29N 54°50' W 000°55'1818.8
2014-Oct-24 16:30N 54°60' W 001°21'4 0.4
2014-Oct-24 07:22N 54°58' W 001°15'1417.8
2014-Oct-24 06:33N 54°51' W 000°54'1917.3
2014-Oct-24 05:29N 54°41' W 000°27'1415.2
2014-Oct-24 04:34N 54°33' W 000°07'1414.2
2014-Oct-24 03:34N 54°25' E 000°13'1414.2
2014-Oct-24 02:32N 54°17' E 000°34'16716.5
2014-Oct-23 16:26N 52°36' E 004°18'1314.9
2014-Oct-23 15:33N 52°28' E 004°35'0 0.4
2014-Oct-23 14:31N 52°28' E 004°35'0 0.0
2014-Oct-23 13:31N 52°28' E 004°35'0 0.0
2014-Oct-23 12:31N 52°28' E 004°35'0 0.0
2014-Oct-23 11:31N 52°28' E 004°35'0 0.0
2014-Oct-23 10:31N 52°28' E 004°35'0 0.0
2014-Oct-23 09:31N 52°28' E 004°35'0 0.0
2014-Oct-23 08:31N 52°28' E 004°35'0 0.0
2014-Oct-23 07:33N 52°28' E 004°35'1111.0
2014-Oct-23 06:33N 52°34' E 004°20'1716.9
2014-Oct-23 05:33N 52°45' E 003°59'1817.7
2014-Oct-23 04:32N 52°57' E 003°36'12618.0
2014-Oct-22 21:33N 54°12' E 000°47'1716.8
2014-Oct-22 20:33N 54°21' E 000°22'1717.0
2014-Oct-22 19:33N 54°30' W 000°02'1717.2
2014-Oct-22 18:33N 54°39' W 000°27'1817.6
2014-Oct-22 17:33N 54°49' W 000°53'1817.8
2014-Oct-22 16:33N 54°59' W 001°19'14 1.9
2014-Oct-22 09:26N 54°50' W 001°00'2619.1
2014-Oct-22 08:06N 54°32' W 000°29'1019.1
2014-Oct-22 07:34N 54°25' W 000°17'1918.6
2014-Oct-22 06:33N 54°10' E 000°03'1717.2
2014-Oct-22 05:33N 53°57' E 000°23'1515.2
2014-Oct-22 04:33N 53°46' E 000°39'4615.1
2014-Oct-22 01:29N 53°08' E 001°24'1617.4
2014-Oct-22 00:33N 52°54' E 001°39'8312.7
2014-Oct-21 18:04N 52°32' E 003°50'714.5
2014-Oct-21 17:33N 52°31' E 004°02'1414.3
2014-Oct-21 16:34N 52°29' E 004°25'6 5.6
2014-Oct-21 15:29N 52°28' E 004°35'0 0.0
2014-Oct-21 14:32N 52°28' E 004°35'  
Track history (hours):
 
Tides and Currents Weather Stations Pressure Air Temp Water Temp Dewpoint Dewpoint Depression Visibility Wind Speed Wind Dir Waves Ship Positions

King of Scandinavia

Ship's website: http://www.dfds.co.uk/DSW/EN/OnBoard/na/KING.htm

Last reported at 2014-Oct-31 13:32 UTC. Time now 2014-Oct-31 14:17 UTC.
Position N 52°28' E 004°35'.

Length 166 m; beam 27.6 m; draft 6.2 m.

Type: Passenger vessel. MMSI: 220449000.

Date/timePositionNaut miles runAvg speedWind from/ knotsBaromVisibWave heightAir tempDewpointWater temp
2014-Oct-31 13:32N 52°28' E 004°35'0 0.0
2014-Oct-31 12:32N 52°28' E 004°35'0 0.0
2014-Oct-31 11:32N 52°28' E 004°35'0 0.0
2014-Oct-31 10:32N 52°28' E 004°35'0 0.0
2014-Oct-31 09:32N 52°28' E 004°35'0 0.0
2014-Oct-31 08:33N 52°28' E 004°35'1110.7
2014-Oct-31 07:34N 52°34' E 004°21'1716.6
2014-Oct-31 06:33N 52°45' E 003°60'1817.3
2014-Oct-31 05:32N 52°56' E 003°38'1717.2
2014-Oct-31 04:33N 53°07' E 003°16'3617.6
2014-Oct-31 02:31N 53°30' E 002°30'7218.2
2014-Oct-30 22:33N 54°11' E 000°49'1818.4
2014-Oct-30 21:33N 54°21' E 000°23'1818.5
2014-Oct-30 20:34N 54°30' W 000°04'1818.5
2014-Oct-30 19:34N 54°41' W 000°30'1818.3
2014-Oct-30 18:33N 54°51' W 000°57'1817.9
2014-Oct-30 17:33N 55°01' W 001°23'17 1.7
2014-Oct-30 07:33N 54°52' W 000°58'1515.0
2014-Oct-30 06:33N 54°44' W 000°36'1515.1
2014-Oct-30 05:34N 54°36' W 000°14'1716.8
2014-Oct-30 04:34N 54°26' E 000°10'1918.6
2014-Oct-30 03:34N 54°16' E 000°36'14916.5
2014-Oct-29 18:33N 52°47' E 003°57'1615.8
2014-Oct-29 17:34N 52°36' E 004°16'1414.3
2014-Oct-29 16:33N 52°28' E 004°35'0 0.2
2014-Oct-29 15:31N 52°28' E 004°35'0 0.0
2014-Oct-29 14:28N 52°28' E 004°35'0 0.0
2014-Oct-29 13:31N 52°28' E 004°35'0 0.0
2014-Oct-29 12:31N 52°28' E 004°35'0 0.0
2014-Oct-29 11:28N 52°28' E 004°35'0 0.0
2014-Oct-29 10:31N 52°28' E 004°35'0 0.0
2014-Oct-29 09:31N 52°28' E 004°35'0 0.1
2014-Oct-29 08:34N 52°28' E 004°35'1010.2
2014-Oct-29 07:33N 52°33' E 004°21'1313.0
2014-Oct-29 06:33N 52°42' E 004°05'15517.2
2014-Oct-28 21:34N 54°15' E 000°37'1918.9
2014-Oct-28 20:34N 54°25' E 000°10'1919.2
2014-Oct-28 19:34N 54°36' W 000°18'1919.4
2014-Oct-28 18:33N 54°46' W 000°46'1919.1
2014-Oct-28 17:33N 54°57' W 001°14'19 1.8
2014-Oct-28 06:33N 54°47' W 000°45'1312.9
2014-Oct-28 05:33N 54°40' W 000°27'1616.5
2014-Oct-28 04:33N 54°31' W 000°03'1717.2
2014-Oct-28 03:34N 54°21' E 000°22'2118.1
2014-Oct-28 02:24N 54°11' E 000°53'1618.7
2014-Oct-28 01:32N 54°02' E 001°16'2118.5
2014-Oct-28 00:25N 53°50' E 001°44'7016.8
2014-Oct-27 20:14N 53°07' E 003°17'1217.1
2014-Oct-27 19:33N 52°59' E 003°32'1915.2
2014-Oct-27 18:18N 52°48' E 003°58'1515.7
2014-Oct-27 17:19N 52°37' E 004°15'1215.2
2014-Oct-27 16:34N 52°29' E 004°29'4 3.6
2014-Oct-27 15:31N 52°28' E 004°35'0 0.0
2014-Oct-27 14:31N 52°28' E 004°35'0 0.0
2014-Oct-27 13:31N 52°28' E 004°35'0 0.0
2014-Oct-27 12:31N 52°28' E 004°35'0 0.0
2014-Oct-27 11:31N 52°28' E 004°35'0 0.0
2014-Oct-27 10:31N 52°28' E 004°35'0 0.0
2014-Oct-27 09:31N 52°28' E 004°35'0 0.0
2014-Oct-27 08:34N 52°28' E 004°35'1111.0
2014-Oct-27 07:33N 52°34' E 004°20'1716.8
2014-Oct-27 06:33N 52°45' E 003°59'14317.7
2014-Oct-26 22:26N 54°11' E 000°46'1516.6
2014-Oct-26 21:33N 54°19' E 000°26'1717.0
2014-Oct-26 20:33N 54°28' E 000°01'1717.4
2014-Oct-26 19:33N 54°38' W 000°24'2218.0
2014-Oct-26 18:21N 54°50' W 000°55'1518.3
2014-Oct-26 17:33N 54°58' W 001°17'20 2.0
2014-Oct-26 07:32N 54°48' W 000°48'1716.9
2014-Oct-26 06:32N 54°39' W 000°23'1616.4
2014-Oct-26 05:33N 54°30' E 000°00'1616.1
2014-Oct-26 04:33N 54°21' E 000°23'17414.4
2014-Oct-25 16:29N 52°37' E 004°16'1414.7
2014-Oct-25 15:33N 52°28' E 004°33'1 1.3
2014-Oct-25 14:32N 52°28' E 004°35'0 0.0
2014-Oct-25 13:32N 52°28' E 004°35'0 0.0
2014-Oct-25 12:32N 52°28' E 004°35'0 0.0
2014-Oct-25 11:32N 52°28' E 004°35'0 0.0
2014-Oct-25 10:32N 52°28' E 004°35'0 0.0
2014-Oct-25 09:32N 52°28' E 004°35'0 0.0
2014-Oct-25 08:32N 52°28' E 004°35'0 0.0
2014-Oct-25 07:33N 52°28' E 004°35'1211.7
2014-Oct-25 06:33N 52°35' E 004°19'2517.6
2014-Oct-25 05:07N 52°51' E 003°48'1017.8
2014-Oct-25 04:33N 52°57' E 003°35'12417.5
2014-Oct-24 21:28N 54°11' E 000°48'1617.3
2014-Oct-24 20:33N 54°20' E 000°25'1817.5
2014-Oct-24 19:33N 54°29' W 000°00'1817.9
2014-Oct-24 18:33N 54°39' W 000°26'2018.4
2014-Oct-24 17:29N 54°50' W 000°55'1818.8
2014-Oct-24 16:30N 54°60' W 001°21'4 0.4
2014-Oct-24 07:22N 54°58' W 001°15'1417.8
2014-Oct-24 06:33N 54°51' W 000°54'1917.3
2014-Oct-24 05:29N 54°41' W 000°27'1415.2
2014-Oct-24 04:34N 54°33' W 000°07'1414.2
2014-Oct-24 03:34N 54°25' E 000°13'1414.2
2014-Oct-24 02:32N 54°17' E 000°34'16716.5
2014-Oct-23 16:26N 52°36' E 004°18'1314.9
2014-Oct-23 15:33N 52°28' E 004°35'0 0.4
2014-Oct-23 14:31N 52°28' E 004°35'0 0.0
2014-Oct-23 13:31N 52°28' E 004°35'0 0.0
2014-Oct-23 12:31N 52°28' E 004°35'0 0.0
2014-Oct-23 11:31N 52°28' E 004°35'0 0.0
2014-Oct-23 10:31N 52°28' E 004°35'0 0.0
2014-Oct-23 09:31N 52°28' E 004°35'0 0.0
2014-Oct-23 08:31N 52°28' E 004°35'0 0.0
2014-Oct-23 07:33N 52°28' E 004°35'1111.0
2014-Oct-23 06:33N 52°34' E 004°20'1716.9
2014-Oct-23 05:33N 52°45' E 003°59'1817.7
2014-Oct-23 04:32N 52°57' E 003°36'12618.0
2014-Oct-22 21:33N 54°12' E 000°47'1716.8
2014-Oct-22 20:33N 54°21' E 000°22'1717.0
2014-Oct-22 19:33N 54°30' W 000°02'1717.2
2014-Oct-22 18:33N 54°39' W 000°27'1817.6
2014-Oct-22 17:33N 54°49' W 000°53'1817.8
2014-Oct-22 16:33N 54°59' W 001°19'14 1.9
2014-Oct-22 09:26N 54°50' W 001°00'2619.1
2014-Oct-22 08:06N 54°32' W 000°29'1019.1
2014-Oct-22 07:34N 54°25' W 000°17'1918.6
2014-Oct-22 06:33N 54°10' E 000°03'1717.2
2014-Oct-22 05:33N 53°57' E 000°23'1515.2
2014-Oct-22 04:33N 53°46' E 000°39'4615.1
2014-Oct-22 01:29N 53°08' E 001°24'1617.4
2014-Oct-22 00:33N 52°54' E 001°39'8312.7
2014-Oct-21 18:04N 52°32' E 003°50'714.5
2014-Oct-21 17:33N 52°31' E 004°02'1414.3
2014-Oct-21 16:34N 52°29' E 004°25'6 5.6
2014-Oct-21 15:29N 52°28' E 004°35'0 0.0
2014-Oct-21 14:32N 52°28' E 004°35'  

Dump ship's entire track history